Time;durP1;ratioP1;P1;durP2;ratioP2;P2;SDS_P1;SDS_P2;PMS_P1;PMS_P2;Temp;Humidity;BMP_temperature;BMP_pressure;BME280_temperature;BME280_humidity;BME280_pressure;Samples;Min_cycle;Max_cycle;Signal;HPM_P1;HPM_P2
2022/12/27 00:01:34;;;;;;;5.00;2.70;;;24.10;56.30;;;;;;4992371;28;20221;-40
2022/12/27 00:04:05;;;;;;;2.60;2.20;;;24.10;56.30;;;;;;4992388;28;20406;-47
2022/12/27 00:06:36;;;;;;;2.45;2.05;;;24.10;56.30;;;;;;4992608;28;20201;-40
2022/12/27 00:09:07;;;;;;;3.30;2.20;;;24.10;56.20;;;;;;4993141;28;20280;-41
2022/12/27 00:11:38;;;;;;;2.63;2.10;;;24.10;56.20;;;;;;4992661;28;20236;-43
2022/12/27 00:14:09;;;;;;;2.55;1.95;;;24.10;56.20;;;;;;4992983;28;20197;-41
2022/12/27 00:16:41;;;;;;;2.58;2.03;;;24.10;56.20;;;;;;4991099;28;20197;-41
2022/12/27 00:19:12;;;;;;;3.25;2.00;;;24.10;56.20;;;;;;4992618;28;20202;-40
2022/12/27 00:21:43;;;;;;;2.10;1.90;;;24.10;56.20;;;;;;4992474;28;20222;-41
2022/12/27 00:24:13;;;;;;;2.10;1.90;;;24.10;56.20;;;;;;4992317;28;20197;-45
2022/12/27 00:26:44;;;;;;;2.33;1.90;;;24.20;56.30;;;;;;4992539;28;20297;-41
2022/12/27 00:29:15;;;;;;;2.10;1.90;;;24.10;56.10;;;;;;4992283;28;20697;-44
2022/12/27 00:31:47;;;;;;;3.30;2.03;;;24.10;56.10;;;;;;4991655;28;20236;-46
2022/12/27 00:34:18;;;;;;;2.20;2.00;;;24.10;56.10;;;;;;4991910;28;20221;-44
2022/12/27 00:36:49;;;;;;;2.47;1.60;;;24.10;56.10;;;;;;4992331;28;20189;-40
2022/12/27 00:39:20;;;;;;;2.42;1.90;;;24.10;56.10;;;;;;4991257;28;20212;-46
2022/12/27 00:41:50;;;;;;;2.17;1.98;;;24.10;56.10;;;;;;4992441;28;20222;-46
2022/12/27 00:44:21;;;;;;;2.35;1.80;;;24.10;56.00;;;;;;4992004;28;20201;-41
2022/12/27 00:46:54;;;;;;;2.60;2.10;;;24.10;56.10;;;;;;4992130;28;20201;-44
2022/12/27 00:49:24;;;;;;;2.65;1.90;;;24.10;56.00;;;;;;4991210;28;20216;-42
2022/12/27 00:51:55;;;;;;;2.45;1.67;;;24.20;56.00;;;;;;4991688;28;20230;-41
2022/12/27 00:54:26;;;;;;;1.98;1.80;;;24.20;56.00;;;;;;4991474;28;20198;-40
2022/12/27 00:56:56;;;;;;;2.10;1.90;;;24.20;56.00;;;;;;4992028;28;20205;-41
2022/12/27 00:59:27;;;;;;;2.00;1.73;;;24.20;56.00;;;;;;4983776;28;20209;-40
2022/12/27 01:02:00;;;;;;;2.10;1.90;;;24.20;56.00;;;;;;4971829;28;20615;-40
2022/12/27 01:04:30;;;;;;;1.90;1.70;;;24.20;56.00;;;;;;4972587;28;20209;-41
2022/12/27 01:07:01;;;;;;;1.90;1.73;;;24.20;56.10;;;;;;4972104;28;20225;-40
2022/12/27 01:09:32;;;;;;;2.00;1.80;;;24.20;56.00;;;;;;4979473;28;20190;-40
2022/12/27 01:12:02;;;;;;;2.30;1.77;;;24.20;56.00;;;;;;4990750;28;20277;-40
2022/12/27 01:14:33;;;;;;;3.00;2.05;;;24.20;56.00;;;;;;4990985;28;20197;-45
2022/12/27 01:17:06;;;;;;;2.20;1.80;;;24.20;56.00;;;;;;4989591;28;20205;-42
2022/12/27 01:19:38;;;;;;;1.80;1.70;;;24.20;56.00;;;;;;4991392;28;20194;-41
2022/12/27 01:22:09;;;;;;;1.92;1.83;;;24.20;56.00;;;;;;4990447;28;20231;-40
2022/12/27 01:24:40;;;;;;;1.90;1.75;;;24.20;56.00;;;;;;4990922;28;20209;-40
2022/12/27 01:27:10;;;;;;;1.88;1.77;;;24.20;56.00;;;;;;4991287;28;20201;-40
2022/12/27 01:29:41;;;;;;;1.90;1.80;;;24.20;55.90;;;;;;4990573;28;20616;-40
2022/12/27 01:32:14;;;;;;;1.92;1.83;;;24.20;55.90;;;;;;4991388;28;20240;-42
2022/12/27 01:34:44;;;;;;;3.53;1.80;;;24.20;55.90;;;;;;4991285;28;20204;-40
2022/12/27 01:37:15;;;;;;;2.00;1.80;;;24.20;56.00;;;;;;4991438;28;20198;-42
2022/12/27 01:39:46;;;;;;;2.22;1.88;;;24.20;55.90;;;;;;4990975;28;20193;-40
2022/12/27 01:45:12;;;;;;;2.10;1.90;;;24.20;55.90;;;;;;4991326;28;20200;-40
2022/12/27 01:47:50;;;;;;;1.80;1.70;;;24.20;55.90;;;;;;4991551;28;20587;-45
2022/12/27 01:50:28;;;;;;;1.70;1.60;;;24.20;55.90;;;;;;4990322;28;20201;-40
2022/12/27 01:53:05;;;;;;;2.00;1.80;;;24.20;55.90;;;;;;4991624;28;20205;-40
2022/12/27 01:55:43;;;;;;;2.00;1.80;;;24.20;56.00;;;;;;4991318;28;20685;-40
2022/12/27 01:58:16;;;;;;;2.30;1.70;;;24.20;56.00;;;;;;4990483;28;20224;-48
2022/12/27 02:00:49;;;;;;;1.83;1.55;;;24.20;55.90;;;;;;4990355;28;20198;-42
2022/12/27 02:03:25;;;;;;;2.03;1.83;;;24.20;55.90;;;;;;4990681;28;20205;-40
2022/12/27 02:05:56;;;;;;;2.42;1.80;;;24.30;56.00;;;;;;4991120;28;20207;-40
2022/12/27 02:08:40;;;;;;;1.90;1.70;;;24.30;56.00;;;;;;4990951;28;20208;-41
2022/12/27 02:11:12;;;;;;;1.98;1.77;;;24.30;55.90;;;;;;4990284;28;20617;-43
2022/12/27 02:13:45;;;;;;;1.80;1.48;;;24.30;56.00;;;;;;4990473;28;20209;-43
2022/12/27 02:16:18;;;;;;;1.80;1.60;;;24.30;55.90;;;;;;4990316;28;20209;-51
2022/12/27 02:18:51;;;;;;;1.75;1.58;;;24.30;56.00;;;;;;4990884;28;20204;-45
2022/12/27 02:21:52;;;;;;;2.00;1.80;;;24.30;56.00;;;;;;4990489;28;20221;-44
2022/12/27 02:24:50;;;;;;;1.63;1.52;;;24.30;56.00;;;;;;4979101;28;20195;-45
2022/12/27 02:27:34;;;;;;;1.67;1.58;;;24.30;55.90;;;;;;4995008;28;20573;-43
2022/12/27 02:30:08;;;;;;;2.17;1.88;;;24.30;55.90;;;;;;4994263;28;20204;-47
2022/12/27 02:32:44;;;;;;;1.90;1.40;;;24.40;56.00;;;;;;4994523;28;20224;-42
2022/12/27 02:35:23;;;;;;;5.38;1.77;;;24.30;56.00;;;;;;4993869;28;20193;-44
2022/12/27 02:37:56;;;;;;;2.35;1.67;;;24.40;56.20;;;;;;4994287;28;20189;-40
2022/12/27 02:55:07;;;;;;;49.33;6.95;;;24.50;56.00;;;;;;4993685;28;20288;-43
2022/12/27 02:57:43;;;;;;;58.83;8.77;;;24.50;56.10;;;;;;4993509;28;20657;-40
2022/12/27 03:03:24;;;;;;;48.85;7.47;;;24.40;56.10;;;;;;4993763;28;20673;-39
2022/12/27 03:06:40;;;;;;;37.47;6.68;;;24.40;56.00;;;;;;4993360;28;20767;-40
2022/12/27 03:15:59;;;;;;;35.78;6.50;;;24.40;55.90;;;;;;4993212;28;20204;-40
2022/12/27 03:19:08;;;;;;;35.63;6.63;;;24.50;55.90;;;;;;4992861;28;20201;-41
2022/12/27 03:27:27;;;;;;;29.17;6.35;;;24.50;55.90;;;;;;4993383;28;20213;-40
2022/12/27 03:38:01;;;;;;;27.70;5.65;;;24.40;55.80;;;;;;4985548;28;20198;-39
2022/12/27 03:38:42;;;;;;;20.08;4.10;;;24.40;55.70;;;;;;4993602;28;20289;-40
2022/12/27 03:44:03;;;;;;;14.68;4.10;;;24.40;55.70;;;;;;4998942;28;20205;-41
2022/12/27 03:46:35;;;;;;;24.63;4.18;;;24.50;55.70;;;;;;5000509;28;20247;-40
2022/12/27 03:49:21;;;;;;;21.75;4.40;;;24.50;55.70;;;;;;4999021;28;20647;-40
2022/12/27 03:51:59;;;;;;;18.00;4.20;;;24.50;55.60;;;;;;5001135;28;20316;-40
2022/12/27 03:54:34;;;;;;;18.38;3.78;;;24.50;55.60;;;;;;5000465;28;20225;-41
2022/12/27 03:57:07;;;;;;;14.85;3.97;;;24.50;55.60;;;;;;4998866;28;20736;-43
2022/12/27 03:59:38;;;;;;;19.02;3.83;;;24.50;55.50;;;;;;4999937;28;20729;-40
2022/12/27 04:02:09;;;;;;;16.52;4.10;;;24.50;55.40;;;;;;5001159;28;20208;-42
2022/12/27 04:04:40;;;;;;;17.00;3.45;;;24.50;55.50;;;;;;4997366;28;20193;-46
2022/12/27 04:07:15;;;;;;;13.48;3.40;;;24.50;55.40;;;;;;5001349;28;20196;-41
2022/12/27 04:34:46;;;;;;;10.65;2.78;;;24.60;55.30;;;;;;4997078;28;20697;-39
2022/12/27 04:37:19;;;;;;;9.68;2.65;;;24.60;55.30;;;;;;4999972;28;20633;-41
2022/12/27 04:56:34;;;;;;;8.70;2.92;;;24.70;55.20;;;;;;4999343;28;20704;-41
2022/12/27 05:02:06;;;;;;;5.55;2.67;;;24.60;55.70;;;;;;4999283;28;20275;-40
2022/12/27 05:04:38;;;;;;;5.72;2.30;;;24.70;55.10;;;;;;5001138;28;20197;-46
2022/12/27 05:15:33;;;;;;;4.22;2.28;;;24.70;55.00;;;;;;4987161;28;20329;-43
2022/12/27 05:18:04;;;;;;;6.20;2.10;;;24.70;54.90;;;;;;4990431;28;20202;-44
2022/12/27 05:20:37;;;;;;;4.28;2.00;;;24.70;55.00;;;;;;4991461;28;20186;-43
2022/12/27 05:25:54;;;;;;;5.60;2.03;;;24.70;54.90;;;;;;4991532;28;20204;-42
2022/12/27 05:28:26;;;;;;;5.05;2.15;;;24.70;54.90;;;;;;4991024;28;20205;-40
2022/12/27 05:31:01;;;;;;;5.00;2.17;;;24.70;54.90;;;;;;4991179;28;20213;-42
2022/12/27 05:33:33;;;;;;;3.72;2.13;;;24.70;54.90;;;;;;4990854;28;20196;-49
2022/12/27 05:36:04;;;;;;;5.60;2.10;;;24.80;54.90;;;;;;4991364;28;20680;-40
2022/12/27 05:38:35;;;;;;;9.20;2.40;;;24.70;54.90;;;;;;4990695;28;20193;-47
2022/12/27 05:41:06;;;;;;;5.35;2.35;;;24.80;54.90;;;;;;4990891;28;20225;-45
2022/12/27 05:43:39;;;;;;;3.63;2.20;;;24.80;54.90;;;;;;4991280;28;20197;-46
2022/12/27 05:46:11;;;;;;;4.45;2.03;;;24.80;54.80;;;;;;4991083;28;20205;-41
2022/12/27 05:48:42;;;;;;;4.82;2.13;;;24.80;54.80;;;;;;4991443;28;20201;-40
2022/12/27 05:51:16;;;;;;;5.60;1.90;;;24.80;54.80;;;;;;4990413;28;20231;-40
2022/12/27 05:53:47;;;;;;;4.88;2.30;;;24.80;54.80;;;;;;4991027;28;20200;-40
2022/12/27 05:56:20;;;;;;;6.07;2.25;;;24.80;54.70;;;;;;5000856;28;20576;-40
2022/12/27 05:58:55;;;;;;;4.35;2.00;;;24.80;54.70;;;;;;4997748;28;20570;-40
2022/12/27 06:01:26;;;;;;;2.85;1.70;;;24.80;54.60;;;;;;4999091;28;20213;-40
2022/12/27 06:03:57;;;;;;;4.03;2.08;;;24.80;54.70;;;;;;5000202;28;20552;-42
2022/12/27 06:06:27;;;;;;;5.55;2.05;;;24.70;54.60;;;;;;5002144;28;20641;-40
2022/12/27 06:08:58;;;;;;;2.95;1.80;;;24.70;54.60;;;;;;5008173;28;20201;-40
2022/12/27 06:11:29;;;;;;;3.53;1.70;;;24.70;54.60;;;;;;4990982;28;20635;-40
2022/12/27 06:14:01;;;;;;;2.90;1.85;;;24.70;54.60;;;;;;4991078;28;20201;-40
2022/12/27 06:16:32;;;;;;;3.10;1.90;;;24.70;54.60;;;;;;4990972;28;20197;-40
2022/12/27 06:19:03;;;;;;;5.90;2.25;;;24.70;54.60;;;;;;4990892;28;20197;-40
2022/12/27 06:21:33;;;;;;;3.88;1.90;;;24.70;54.60;;;;;;4990653;28;20217;-40
2022/12/27 06:24:04;;;;;;;4.80;1.83;;;24.70;54.60;;;;;;4990523;28;20650;-43
2022/12/27 06:26:35;;;;;;;2.92;1.60;;;24.70;54.50;;;;;;4990754;28;20216;-39
2022/12/27 06:29:07;;;;;;;3.17;1.75;;;24.70;54.50;;;;;;4990830;28;20251;-42
2022/12/27 06:31:38;;;;;;;3.53;1.95;;;24.70;54.50;;;;;;4990540;28;20218;-43
2022/12/27 06:34:09;;;;;;;3.17;1.90;;;24.70;54.50;;;;;;4990885;28;20197;-45
2022/12/27 06:36:39;;;;;;;2.78;1.70;;;24.70;54.50;;;;;;4990862;28;20198;-40
2022/12/27 06:39:10;;;;;;;3.05;1.90;;;24.70;54.60;;;;;;4990779;28;20201;-40
2022/12/27 06:41:41;;;;;;;4.22;1.95;;;24.70;54.50;;;;;;4990241;28;20221;-41
2022/12/27 06:44:13;;;;;;;2.83;1.90;;;24.70;54.50;;;;;;4990510;28;20235;-42
2022/12/27 06:46:44;;;;;;;5.78;2.53;;;24.70;54.50;;;;;;4990336;28;20676;-39
2022/12/27 06:49:15;;;;;;;3.58;2.10;;;24.70;54.50;;;;;;4990418;28;20207;-39
2022/12/27 06:51:47;;;;;;;3.70;2.15;;;24.60;54.40;;;;;;4989933;28;20577;-40
2022/12/27 06:54:17;;;;;;;5.40;2.38;;;24.60;54.40;;;;;;4990724;28;20681;-40
2022/12/27 06:56:57;;;;;;;4.45;2.08;;;24.60;54.40;;;;;;4990876;28;20206;-39
2022/12/27 06:59:30;;;;;;;4.90;2.30;;;24.60;54.40;;;;;;4990963;28;20676;-39
2022/12/27 07:02:01;;;;;;;4.25;2.33;;;24.60;54.40;;;;;;4990833;28;20224;-39
2022/12/27 07:04:31;;;;;;;5.22;2.40;;;24.60;54.40;;;;;;4990922;28;20205;-40
2022/12/27 07:07:02;;;;;;;5.70;2.45;;;24.70;54.40;;;;;;4990929;28;20687;-39
2022/12/27 07:09:33;;;;;;;4.25;2.05;;;24.60;54.40;;;;;;4991671;28;20566;-39
2022/12/27 07:12:03;;;;;;;3.30;1.90;;;24.60;54.40;;;;;;4993498;28;20225;-40
2022/12/27 07:14:36;;;;;;;5.50;2.20;;;24.60;54.40;;;;;;4993702;28;20221;-40
2022/12/27 07:17:07;;;;;;;4.43;2.30;;;24.60;54.40;;;;;;4993866;28;20201;-40
2022/12/27 07:19:37;;;;;;;2.85;2.17;;;24.60;54.40;;;;;;4994261;28;20204;-40
2022/12/27 07:22:08;;;;;;;4.53;2.33;;;24.50;54.40;;;;;;4994169;28;20229;-40
2022/12/27 07:24:38;;;;;;;4.07;2.28;;;24.50;54.40;;;;;;4993998;28;20790;-40
2022/12/27 07:27:09;;;;;;;4.35;2.40;;;24.50;54.40;;;;;;4993997;28;20201;-40
2022/12/27 07:29:42;;;;;;;3.50;1.98;;;24.50;54.50;;;;;;4993939;28;20201;-39
2022/12/27 07:32:12;;;;;;;3.30;2.22;;;24.50;54.40;;;;;;4993450;28;20220;-40
2022/12/27 07:34:43;;;;;;;2.83;1.77;;;24.50;54.40;;;;;;4994117;28;20208;-40
2022/12/27 07:37:14;;;;;;;3.65;1.90;;;24.50;54.40;;;;;;4993799;28;20202;-39
2022/12/27 07:39:44;;;;;;;3.35;1.90;;;24.50;54.50;;;;;;4994217;28;20200;-40
2022/12/27 07:42:15;;;;;;;2.30;1.98;;;24.50;54.40;;;;;;4993354;28;20221;-40
2022/12/27 07:44:48;;;;;;;3.40;2.13;;;24.50;54.40;;;;;;4993544;28;20205;-40
2022/12/27 07:47:18;;;;;;;4.20;2.25;;;24.50;54.40;;;;;;4993694;28;20197;-43
2022/12/27 07:49:49;;;;;;;2.70;1.80;;;24.50;54.40;;;;;;4993728;28;20205;-40
2022/12/27 07:52:20;;;;;;;4.22;2.15;;;24.40;54.40;;;;;;4992857;28;20225;-41
2022/12/27 07:54:50;;;;;;;2.92;1.80;;;24.40;54.40;;;;;;4992741;28;20205;-40
2022/12/27 07:57:21;;;;;;;4.65;2.30;;;24.40;54.40;;;;;;4993047;28;20557;-48
2022/12/27 07:59:54;;;;;;;4.00;1.55;;;24.40;54.40;;;;;;4993181;28;20205;-48
2022/12/27 08:02:24;;;;;;;5.45;1.80;;;24.30;53.30;;;;;;4992658;28;20229;-47
2022/12/27 08:04:55;;;;;;;3.05;1.63;;;24.30;52.70;;;;;;4992008;28;20201;-40
2022/12/27 08:07:27;;;;;;;2.63;1.50;;;24.20;52.50;;;;;;4992340;28;20201;-49
2022/12/27 08:09:58;;;;;;;2.92;1.63;;;24.10;52.80;;;;;;4992338;28;20198;-46
2022/12/27 08:12:29;;;;;;;3.80;1.60;;;24.00;53.00;;;;;;4987721;28;20225;-40
2022/12/27 08:15:01;;;;;;;2.80;1.70;;;24.00;53.30;;;;;;4986778;28;20197;-41
2022/12/27 08:17:33;;;;;;;5.80;1.67;;;24.00;53.60;;;;;;4991694;28;20198;-40
2022/12/27 08:20:04;;;;;;;2.33;1.38;;;24.00;53.60;;;;;;4991942;28;20658;-41
2022/12/27 08:22:35;;;;;;;2.85;1.50;;;23.90;54.20;;;;;;4991893;28;20217;-39
2022/12/27 08:25:06;;;;;;;2.90;1.52;;;23.90;53.70;;;;;;4989958;28;20921;-39
2022/12/27 08:27:36;;;;;;;3.42;1.60;;;23.90;53.80;;;;;;4992019;28;20212;-39
2022/12/27 08:30:10;;;;;;;2.40;1.40;;;23.90;53.80;;;;;;4991597;28;20200;-39
2022/12/27 08:32:45;;;;;;;2.67;1.38;;;23.90;53.80;;;;;;4992207;28;20240;-40
2022/12/27 08:35:15;;;;;;;3.67;1.50;;;23.90;53.80;;;;;;4992525;28;20204;-40
2022/12/27 08:38:29;;;;;;;3.15;1.58;;;23.80;53.80;;;;;;4992149;28;20201;-39
2022/12/27 08:40:59;;;;;;;3.05;1.70;;;23.90;53.90;;;;;;4991244;28;20229;-40
2022/12/27 08:43:30;;;;;;;4.18;1.50;;;23.90;53.90;;;;;;4990915;28;20200;-39
2022/12/27 08:46:07;;;;;;;3.28;1.55;;;23.90;54.00;;;;;;4989720;28;20272;-40
2022/12/27 08:48:37;;;;;;;3.33;1.60;;;23.80;54.00;;;;;;4990423;28;20201;-40
2022/12/27 08:51:09;;;;;;;2.33;1.52;;;23.90;54.00;;;;;;4990440;28;20222;-40
2022/12/27 08:53:40;;;;;;;2.72;1.85;;;23.80;54.00;;;;;;4990982;28;20225;-43
2022/12/27 08:56:11;;;;;;;1.98;1.40;;;23.80;53.90;;;;;;4990761;28;20201;-40
2022/12/27 08:58:41;;;;;;;3.80;1.75;;;23.80;53.90;;;;;;4991249;28;20208;-39
2022/12/27 09:01:14;;;;;;;2.47;1.48;;;23.80;53.90;;;;;;4991032;28;20713;-39
2022/12/27 09:03:45;;;;;;;1.70;1.60;;;23.80;53.90;;;;;;4990244;28;20201;-40
2022/12/27 09:06:17;;;;;;;3.17;1.73;;;23.80;53.90;;;;;;4991694;28;20650;-41
2022/12/27 09:08:49;;;;;;;2.58;1.50;;;23.80;53.90;;;;;;4991608;28;20198;-41
2022/12/27 09:11:21;;;;;;;2.55;1.58;;;23.80;54.00;;;;;;4990996;28;20590;-40
2022/12/27 09:13:52;;;;;;;3.13;1.70;;;23.80;54.00;;;;;;4991178;28;20251;-40
2022/12/27 09:16:27;;;;;;;2.90;1.50;;;23.80;54.00;;;;;;4991235;28;20201;-40
2022/12/27 09:18:58;;;;;;;3.00;1.50;;;23.80;54.00;;;;;;4991915;28;20608;-41
2022/12/27 09:21:32;;;;;;;2.85;1.50;;;23.80;54.00;;;;;;4990711;28;20218;-40
2022/12/27 09:24:03;;;;;;;1.85;1.48;;;23.80;54.00;;;;;;4991316;28;20252;-40
2022/12/27 09:26:34;;;;;;;3.58;1.60;;;23.80;54.10;;;;;;4989970;28;20213;-40
2022/12/27 09:29:05;;;;;;;2.75;1.58;;;23.80;54.10;;;;;;4991580;28;20668;-39
2022/12/27 09:31:39;;;;;;;1.80;1.30;;;23.80;54.10;;;;;;4991178;28;20221;-39
2022/12/27 09:34:11;;;;;;;2.63;1.75;;;23.80;54.00;;;;;;4990162;28;20735;-40
2022/12/27 09:36:41;;;;;;;3.80;1.67;;;23.80;54.00;;;;;;4990918;28;20204;-39
2022/12/27 09:39:12;;;;;;;2.35;1.50;;;23.80;54.00;;;;;;4991031;28;20193;-39
2022/12/27 09:41:55;;;;;;;1.73;1.48;;;23.70;53.90;;;;;;4991184;28;20220;-39
2022/12/27 09:44:31;;;;;;;2.35;1.45;;;23.70;54.00;;;;;;4990666;28;20208;-39
2022/12/27 09:47:10;;;;;;;1.70;1.30;;;23.70;54.00;;;;;;4990545;28;20579;-39
2022/12/27 09:49:43;;;;;;;2.30;1.55;;;23.70;54.00;;;;;;4990412;28;20590;-40
2022/12/27 09:52:17;;;;;;;1.65;1.30;;;23.70;54.10;;;;;;4990818;28;21049;-40
2022/12/27 09:54:56;;;;;;;3.28;1.85;;;23.70;54.10;;;;;;4990820;28;20233;-40
2022/12/27 09:57:33;;;;;;;2.40;1.58;;;23.70;54.10;;;;;;4990682;28;20193;-39
2022/12/27 10:00:06;;;;;;;2.45;1.50;;;23.70;54.20;;;;;;4990047;28;20204;-40
2022/12/27 10:02:38;;;;;;;2.60;1.48;;;23.70;54.10;;;;;;4989781;28;20221;-39
2022/12/27 10:05:18;;;;;;;2.25;1.60;;;23.70;54.20;;;;;;4988662;28;20200;-39
2022/12/27 10:08:03;;;;;;;1.48;1.38;;;23.70;54.20;;;;;;4990884;28;20193;-39
2022/12/27 10:10:44;;;;;;;1.40;1.30;;;23.70;54.20;;;;;;4990843;28;20197;-39
2022/12/27 10:13:28;;;;;;;1.67;1.20;;;23.70;54.10;;;;;;4990744;28;20240;-39
2022/12/27 10:16:09;;;;;;;1.98;1.63;;;23.70;54.10;;;;;;4991247;28;20563;-43
2022/12/27 10:18:57;;;;;;;1.60;1.50;;;23.60;54.10;;;;;;4990869;28;20209;-39
2022/12/27 10:21:29;;;;;;;1.85;1.65;;;23.60;54.10;;;;;;4990888;28;20227;-39
2022/12/27 10:24:11;;;;;;;1.90;1.50;;;23.60;54.10;;;;;;4990243;28;20300;-39
2022/12/27 10:26:42;;;;;;;1.50;1.40;;;23.60;54.20;;;;;;4990982;28;20673;-39
2022/12/27 10:29:19;;;;;;;2.10;1.70;;;23.50;54.20;;;;;;4989952;28;20197;-39
2022/12/27 10:31:50;;;;;;;2.03;1.63;;;23.50;54.20;;;;;;4991126;28;20234;-39
2022/12/27 10:34:23;;;;;;;1.85;1.50;;;23.50;54.30;;;;;;4990398;28;20229;-39
2022/12/27 10:36:54;;;;;;;2.42;1.45;;;23.50;54.30;;;;;;4990604;28;20260;-40
2022/12/27 10:39:31;;;;;;;1.80;1.50;;;23.50;54.30;;;;;;4990114;28;20205;-39
2022/12/27 10:42:11;;;;;;;2.85;1.63;;;23.50;54.20;;;;;;4990243;28;20220;-41
2022/12/27 10:44:42;;;;;;;2.25;1.58;;;23.50;54.20;;;;;;4990729;28;20201;-39
2022/12/27 10:47:14;;;;;;;1.98;1.33;;;23.50;54.20;;;;;;4973993;28;20702;-41
2022/12/27 10:50:05;;;;;;;2.75;1.70;;;23.50;54.30;;;;;;4975019;28;20202;-39
2022/12/27 10:52:37;;;;;;;2.60;1.58;;;23.50;54.20;;;;;;4974993;28;20222;-39
2022/12/27 10:55:28;;;;;;;2.13;1.58;;;23.50;54.20;;;;;;4974577;28;20313;-42
2022/12/27 10:57:59;;;;;;;1.45;1.35;;;23.50;54.20;;;;;;4974266;28;20588;-39
2022/12/27 11:00:30;;;;;;;1.70;1.40;;;23.40;54.20;;;;;;4974440;28;20205;-39
2022/12/27 11:03:01;;;;;;;1.60;1.50;;;23.40;54.20;;;;;;4974065;28;20218;-39
2022/12/27 11:05:35;;;;;;;1.88;1.60;;;23.40;54.30;;;;;;4974786;28;20289;-39
2022/12/27 11:08:22;;;;;;;2.25;1.67;;;23.40;54.30;;;;;;4991852;28;20194;-39
2022/12/27 11:11:12;;;;;;;2.13;1.50;;;23.40;54.30;;;;;;4993843;28;20201;-39
2022/12/27 11:13:43;;;;;;;1.25;1.15;;;23.40;54.30;;;;;;4992489;28;20685;-42
2022/12/27 11:16:35;;;;;;;2.58;1.48;;;23.40;54.30;;;;;;4993819;28;20587;-43
2022/12/27 11:19:07;;;;;;;2.17;1.55;;;23.40;54.30;;;;;;4993030;28;20572;-39
2022/12/27 11:21:41;;;;;;;1.80;1.50;;;23.40;54.30;;;;;;4993034;28;20221;-43
2022/12/27 11:24:19;;;;;;;2.20;1.60;;;23.40;54.30;;;;;;4993180;28;20201;-39
2022/12/27 11:26:54;;;;;;;2.75;1.80;;;23.30;54.30;;;;;;4993840;28;20569;-39
2022/12/27 11:29:27;;;;;;;2.28;1.60;;;23.30;54.30;;;;;;4993813;28;20197;-42
2022/12/27 11:32:05;;;;;;;2.53;1.50;;;23.40;54.30;;;;;;4993817;28;20218;-39
2022/12/27 11:34:38;;;;;;;2.08;1.40;;;23.30;54.30;;;;;;4993926;28;20248;-41
2022/12/27 11:37:15;;;;;;;1.70;1.40;;;23.30;54.30;;;;;;4993330;28;20540;-40
2022/12/27 11:39:47;;;;;;;1.30;1.20;;;23.30;54.40;;;;;;4993991;28;20229;-39
2022/12/27 11:42:23;;;;;;;1.23;1.13;;;23.30;54.40;;;;;;4993101;28;20296;-39
2022/12/27 11:45:15;;;;;;;1.65;1.52;;;23.30;54.40;;;;;;4993234;28;20205;-43
2022/12/27 11:47:51;;;;;;;2.08;1.70;;;23.30;54.40;;;;;;4993811;28;20198;-40
2022/12/27 11:51:03;;;;;;;1.60;1.50;;;23.30;54.40;;;;;;4993571;28;20204;-40
2022/12/27 11:54:07;;;;;;;1.55;1.40;;;23.30;54.50;;;;;;4914125;29;20623;-40
2022/12/27 11:56:41;;;;;;;1.45;1.35;;;23.20;54.40;;;;;;4910556;29;20196;-39
2022/12/27 11:59:39;;;;;;;2.20;1.40;;;23.20;54.30;;;;;;4981880;28;20658;-39
2022/12/27 12:02:49;;;;;;;1.95;1.60;;;23.20;54.40;;;;;;5002978;28;20692;-39
2022/12/27 12:05:47;;;;;;;1.58;1.40;;;23.20;54.40;;;;;;4922798;29;20215;-39
2022/12/27 12:08:38;;;;;;;2.47;1.38;;;23.20;54.30;;;;;;4992549;28;20201;-52
2022/12/27 12:11:23;;;;;;;1.50;1.40;;;23.20;54.40;;;;;;4991756;28;20218;-39
2022/12/27 12:14:16;;;;;;;1.42;1.20;;;23.20;54.40;;;;;;4990491;28;20217;-40
2022/12/27 12:17:06;;;;;;;2.15;1.30;;;23.20;54.40;;;;;;4994201;28;20197;-39
2022/12/27 12:20:05;;;;;;;2.67;1.42;;;23.10;54.40;;;;;;4991858;28;20197;-41
2022/12/27 12:22:52;;;;;;;1.58;1.40;;;23.10;54.50;;;;;;5002235;28;20248;-39
2022/12/27 12:25:59;;;;;;;1.67;1.40;;;23.10;54.50;;;;;;4991240;28;20205;-39
2022/12/27 12:29:15;;;;;;;1.52;1.42;;;23.10;54.50;;;;;;4992278;28;20204;-40
2022/12/27 12:32:11;;;;;;;2.72;1.60;;;23.00;54.40;;;;;;4966712;28;20213;-42
2022/12/27 12:35:07;;;;;;;1.85;1.48;;;23.10;54.50;;;;;;4992924;28;20221;-47
2022/12/27 12:37:55;;;;;;;1.90;1.52;;;23.00;54.40;;;;;;4994317;28;20197;-39
2022/12/27 12:40:40;;;;;;;1.92;1.50;;;23.10;54.40;;;;;;4989657;28;20197;-39
2022/12/27 12:43:26;;;;;;;1.52;1.40;;;23.00;54.40;;;;;;4991238;28;20205;-42
2022/12/27 12:46:09;;;;;;;1.70;1.60;;;23.00;54.40;;;;;;5000381;28;20193;-39
2022/12/27 12:49:02;;;;;;;1.60;1.45;;;23.00;54.50;;;;;;4994718;28;20196;-40
2022/12/27 12:51:59;;;;;;;1.40;1.30;;;23.00;54.50;;;;;;4990386;28;20212;-39
2022/12/27 12:55:01;;;;;;;1.60;1.50;;;23.00;54.50;;;;;;4991669;28;20217;-39
2022/12/27 12:57:46;;;;;;;1.90;1.30;;;23.00;54.60;;;;;;4972405;28;20201;-42
2022/12/27 13:00:49;;;;;;;2.67;1.60;;;22.90;54.50;;;;;;4992201;28;20201;-39
2022/12/27 13:03:57;;;;;;;2.47;1.30;;;22.90;54.60;;;;;;4993715;28;20653;-39
2022/12/27 13:07:10;;;;;;;1.83;1.10;;;22.90;54.60;;;;;;4998059;28;20459;-40
2022/12/27 13:10:01;;;;;;;1.73;1.30;;;22.90;54.60;;;;;;4959382;28;20205;-39
2022/12/27 13:12:37;;;;;;;2.55;1.52;;;22.90;54.50;;;;;;4997199;28;20220;-39
2022/12/27 13:15:22;;;;;;;1.55;1.45;;;22.90;54.50;;;;;;4996268;28;20660;-39
2022/12/27 13:18:02;;;;;;;2.28;1.30;;;22.90;54.50;;;;;;4997878;28;20653;-39
2022/12/27 13:20:59;;;;;;;2.25;1.52;;;22.90;54.50;;;;;;5001293;28;20200;-39
2022/12/27 13:23:48;;;;;;;1.92;1.40;;;22.90;54.50;;;;;;5000457;28;20193;-39
2022/12/27 13:26:26;;;;;;;1.52;1.42;;;22.90;54.60;;;;;;4997350;28;20232;-39
2022/12/27 13:29:16;;;;;;;1.40;1.30;;;22.80;54.60;;;;;;4996443;28;20193;-40
2022/12/27 13:31:59;;;;;;;1.50;1.40;;;22.90;54.60;;;;;;5000994;28;20209;-40
2022/12/27 13:34:40;;;;;;;1.65;1.55;;;22.80;54.60;;;;;;5000701;28;20225;-40
2022/12/27 13:37:40;;;;;;;1.50;1.33;;;22.80;54.60;;;;;;5000776;28;20664;-40
2022/12/27 13:40:40;;;;;;;1.70;1.50;;;22.80;54.60;;;;;;5011464;28;20205;-39
2022/12/27 13:43:49;;;;;;;1.98;1.50;;;22.80;54.60;;;;;;4974644;28;20205;-39
2022/12/27 13:46:43;;;;;;;1.80;1.50;;;22.80;54.60;;;;;;4991365;28;20202;-41
2022/12/27 13:49:50;;;;;;;1.23;1.00;;;22.80;54.60;;;;;;4984840;28;20208;-40
2022/12/27 13:52:43;;;;;;;1.40;1.30;;;22.80;54.60;;;;;;4967415;28;20213;-41
2022/12/27 13:55:43;;;;;;;1.52;1.42;;;22.80;54.60;;;;;;4990877;28;20249;-39
2022/12/27 13:58:43;;;;;;;1.45;1.35;;;22.80;54.60;;;;;;4990822;28;20204;-39
2022/12/27 14:01:53;;;;;;;1.50;1.40;;;22.70;54.50;;;;;;4991187;28;20635;-39
2022/12/27 14:04:48;;;;;;;1.50;1.40;;;22.70;54.60;;;;;;4981255;28;20197;-39
2022/12/27 14:07:39;;;;;;;1.30;1.20;;;22.70;54.60;;;;;;4972187;28;20209;-43
2022/12/27 14:10:18;;;;;;;1.50;1.40;;;22.70;54.60;;;;;;4971869;28;20209;-39
2022/12/27 14:13:07;;;;;;;1.77;1.40;;;22.60;54.60;;;;;;4982674;28;20240;-40
2022/12/27 14:16:21;;;;;;;1.50;1.20;;;22.60;54.70;;;;;;4991448;28;20225;-39
2022/12/27 14:19:18;;;;;;;1.48;1.38;;;22.60;54.70;;;;;;4982203;28;20202;-39
2022/12/27 14:22:11;;;;;;;2.15;1.40;;;22.60;54.60;;;;;;4994693;28;20225;-39
2022/12/27 14:25:21;;;;;;;1.25;1.15;;;22.60;54.60;;;;;;4994606;28;20202;-39
2022/12/27 14:28:30;;;;;;;1.75;1.30;;;22.60;55.20;;;;;;4955850;28;20201;-40
2022/12/27 14:31:31;;;;;;;1.67;1.40;;;22.60;54.60;;;;;;4994827;28;20217;-39
2022/12/27 14:34:39;;;;;;;1.67;1.40;;;22.60;54.70;;;;;;4988658;28;20193;-39
2022/12/27 14:37:45;;;;;;;1.20;1.10;;;22.60;54.60;;;;;;4994523;28;20205;-39
2022/12/27 14:40:51;;;;;;;1.63;1.33;;;22.50;54.60;;;;;;4994892;28;20201;-39
2022/12/27 14:44:20;;;;;;;1.35;1.20;;;22.50;54.60;;;;;;4994726;28;20213;-39
2022/12/27 14:47:25;;;;;;;1.40;1.30;;;22.50;54.70;;;;;;4994394;28;20204;-40
2022/12/27 14:50:42;;;;;;;1.30;1.20;;;22.50;54.70;;;;;;4985326;28;20205;-39
2022/12/27 14:53:43;;;;;;;1.40;1.00;;;22.50;54.70;;;;;;4934171;29;20199;-39
2022/12/27 14:56:29;;;;;;;1.33;1.23;;;22.50;54.80;;;;;;4994461;28;20594;-40
2022/12/27 14:59:14;;;;;;;1.80;1.48;;;22.50;54.80;;;;;;4993857;28;20197;-40
2022/12/27 15:01:58;;;;;;;1.70;1.27;;;22.40;54.80;;;;;;4994450;28;20221;-41
2022/12/27 15:04:53;;;;;;;1.80;1.45;;;22.40;54.80;;;;;;4994315;28;20213;-39
2022/12/27 15:07:47;;;;;;;1.60;1.25;;;22.40;54.80;;;;;;4994687;28;20204;-39
2022/12/27 15:10:33;;;;;;;2.25;1.60;;;22.40;54.70;;;;;;4994067;28;20201;-39
2022/12/27 15:13:13;;;;;;;1.50;1.40;;;22.40;54.70;;;;;;4994145;28;20218;-39
2022/12/27 15:15:56;;;;;;;1.70;1.60;;;22.40;54.70;;;;;;4993944;28;20233;-40
2022/12/27 15:18:51;;;;;;;1.50;1.40;;;22.40;54.80;;;;;;4993301;28;20217;-39
2022/12/27 15:21:31;;;;;;;1.50;1.40;;;22.30;54.80;;;;;;4985780;28;20218;-40
2022/12/27 15:24:08;;;;;;;1.45;1.15;;;22.30;54.70;;;;;;4993580;28;20193;-40